Time;durP1;ratioP1;P1;durP2;ratioP2;P2;SDS_P1;SDS_P2;PMS_P1;PMS_P2;Temp;Humidity;BMP_temperature;BMP_pressure;BME280_temperature;BME280_humidity;BME280_pressure;Samples;Min_cycle;Max_cycle;Signal;HPM_P1;HPM_P2
2022/04/02 00:01:51;;;;;;;14.3;12.4;;;;;;;;;;;;;
2022/04/02 00:04:20;;;;;;;15.1;12.8;;;;;;;;;;;;;
2022/04/02 00:06:49;;;;;;;14.4;12.3;;;;;;;;;;;;;
2022/04/02 00:09:21;;;;;;;15.1;12.6;;;;;;;;;;;;;
2022/04/02 00:11:49;;;;;;;14.9;12.6;;;;;;;;;;;;;
2022/04/02 00:14:15;;;;;;;15.2;12.5;;;;;;;;;;;;;
2022/04/02 00:16:44;;;;;;;14.1;12.3;;;;;;;;;;;;;
2022/04/02 00:19:13;;;;;;;13.4;11.8;;;;;;;;;;;;;
2022/04/02 00:21:42;;;;;;;14;12;;;;;;;;;;;;;
2022/04/02 00:24:11;;;;;;;14.5;12.5;;;;;;;;;;;;;
2022/04/02 00:26:40;;;;;;;14.6;12.4;;;;;;;;;;;;;
2022/04/02 00:29:12;;;;;;;13.3;11.9;;;;;;;;;;;;;
2022/04/02 00:31:43;;;;;;;14.1;12.2;;;;;;;;;;;;;
2022/04/02 00:34:12;;;;;;;14;12.1;;;;;;;;;;;;;
2022/04/02 00:36:40;;;;;;;14.6;12.2;;;;;;;;;;;;;
2022/04/02 00:39:09;;;;;;;14.5;12.3;;;;;;;;;;;;;
2022/04/02 00:41:39;;;;;;;13.3;11.9;;;;;;;;;;;;;
2022/04/02 00:44:08;;;;;;;13.8;12.2;;;;;;;;;;;;;
2022/04/02 00:46:37;;;;;;;15;12.7;;;;;;;;;;;;;
2022/04/02 00:49:11;;;;;;;14.6;12.6;;;;;;;;;;;;;
2022/04/02 00:51:44;;;;;;;14.3;12.4;;;;;;;;;;;;;
2022/04/02 00:54:13;;;;;;;14.4;12.5;;;;;;;;;;;;;
2022/04/02 00:56:47;;;;;;;15.6;13.3;;;;;;;;;;;;;
2022/04/02 00:59:16;;;;;;;15.4;13.6;;;;;;;;;;;;;
2022/04/02 01:01:54;;;;;;;14.6;12.8;;;;;;;;;;;;;
2022/04/02 01:04:21;;;;;;;15.9;13.5;;;;;;;;;;;;;
2022/04/02 01:06:48;;;;;;;16;13.8;;;;;;;;;;;;;
2022/04/02 01:09:16;;;;;;;14.9;12.9;;;;;;;;;;;;;
2022/04/02 01:11:41;;;;;;;15.9;13.3;;;;;;;;;;;;;
2022/04/02 01:14:07;;;;;;;16.5;14.1;;;;;;;;;;;;;
2022/04/02 01:16:32;;;;;;;16.4;14.1;;;;;;;;;;;;;
2022/04/02 01:18:59;;;;;;;15.5;13.8;;;;;;;;;;;;;
2022/04/02 01:21:24;;;;;;;15.2;13.4;;;;;;;;;;;;;
2022/04/02 01:23:49;;;;;;;16.6;14.1;;;;;;;;;;;;;
2022/04/02 01:26:14;;;;;;;17.1;13.9;;;;;;;;;;;;;
2022/04/02 01:28:40;;;;;;;17;14.3;;;;;;;;;;;;;
2022/04/02 01:31:04;;;;;;;16.8;14.2;;;;;;;;;;;;;
2022/04/02 01:33:29;;;;;;;16.3;13.4;;;;;;;;;;;;;
2022/04/02 01:35:54;;;;;;;15.4;13.5;;;;;;;;;;;;;
2022/04/02 01:38:20;;;;;;;16.5;14.1;;;;;;;;;;;;;
2022/04/02 01:40:45;;;;;;;16.3;13.7;;;;;;;;;;;;;
2022/04/02 01:43:10;;;;;;;16.4;13.7;;;;;;;;;;;;;
2022/04/02 01:45:38;;;;;;;15.8;13.7;;;;;;;;;;;;;
2022/04/02 01:48:03;;;;;;;15.8;13.6;;;;;;;;;;;;;
2022/04/02 01:50:28;;;;;;;15.8;13.6;;;;;;;;;;;;;
2022/04/02 01:52:53;;;;;;;16.1;13.8;;;;;;;;;;;;;
2022/04/02 01:55:18;;;;;;;16.2;13.9;;;;;;;;;;;;;
2022/04/02 01:57:44;;;;;;;14.7;12.9;;;;;;;;;;;;;
2022/04/02 02:00:09;;;;;;;16.1;13.6;;;;;;;;;;;;;
2022/04/02 02:02:34;;;;;;;15.5;13.4;;;;;;;;;;;;;
2022/04/02 02:05:00;;;;;;;16.6;13.7;;;;;;;;;;;;;
2022/04/02 02:07:26;;;;;;;15.5;13.6;;;;;;;;;;;;;
2022/04/02 02:09:52;;;;;;;15.9;13.3;;;;;;;;;;;;;
2022/04/02 02:12:17;;;;;;;14.7;13.1;;;;;;;;;;;;;
2022/04/02 02:14:41;;;;;;;15.1;12.9;;;;;;;;;;;;;
2022/04/02 02:17:07;;;;;;;15.3;13.1;;;;;;;;;;;;;
2022/04/02 02:19:32;;;;;;;15.3;13.1;;;;;;;;;;;;;
2022/04/02 02:22:27;;;;;;;14.2;12.7;;;;;;;;;;;;;
2022/04/02 02:24:49;;;;;;;14.8;12.7;;;;;;;;;;;;;
2022/04/02 02:27:14;;;;;;;15.7;13.3;;;;;;;;;;;;;
2022/04/02 02:29:39;;;;;;;16.1;13.3;;;;;;;;;;;;;
2022/04/02 02:32:06;;;;;;;15.5;13.1;;;;;;;;;;;;;
2022/04/02 02:36:57;;;;;;;15.6;13;;;;;;;;;;;;;
2022/04/02 02:39:23;;;;;;;16;13.7;;;;;;;;;;;;;
2022/04/02 02:41:48;;;;;;;15.8;13.1;;;;;;;;;;;;;
2022/04/02 02:44:14;;;;;;;14.9;13.2;;;;;;;;;;;;;
2022/04/02 02:46:39;;;;;;;14.8;12.6;;;;;;;;;;;;;
2022/04/02 02:49:05;;;;;;;15.1;12.8;;;;;;;;;;;;;
2022/04/02 02:51:30;;;;;;;15;12.9;;;;;;;;;;;;;
2022/04/02 02:53:55;;;;;;;15.5;13.5;;;;;;;;;;;;;
2022/04/02 02:56:20;;;;;;;15.6;13.2;;;;;;;;;;;;;
2022/04/02 02:58:45;;;;;;;16.4;14;;;;;;;;;;;;;
2022/04/02 03:01:12;;;;;;;15.2;13.3;;;;;;;;;;;;;
2022/04/02 03:03:38;;;;;;;15.2;13;;;;;;;;;;;;;
2022/04/02 03:06:02;;;;;;;16.6;14.1;;;;;;;;;;;;;
2022/04/02 03:08:27;;;;;;;16.3;13.5;;;;;;;;;;;;;
2022/04/02 03:10:54;;;;;;;14.7;12.9;;;;;;;;;;;;;
2022/04/02 03:13:19;;;;;;;15;13.1;;;;;;;;;;;;;
2022/04/02 03:15:47;;;;;;;15.1;13.2;;;;;;;;;;;;;
2022/04/02 03:18:12;;;;;;;15.6;13.3;;;;;;;;;;;;;
2022/04/02 03:20:38;;;;;;;16.2;13.6;;;;;;;;;;;;;
2022/04/02 03:23:13;;;;;;;14.8;13;;;;;;;;;;;;;
2022/04/02 03:25:40;;;;;;;14.8;12.5;;;;;;;;;;;;;
2022/04/02 03:28:06;;;;;;;15.1;13.1;;;;;;;;;;;;;
2022/04/02 03:30:32;;;;;;;14.8;13.1;;;;;;;;;;;;;
2022/04/02 03:32:58;;;;;;;15.8;13.3;;;;;;;;;;;;;
2022/04/02 03:35:23;;;;;;;15.6;13.9;;;;;;;;;;;;;
2022/04/02 03:37:48;;;;;;;17.8;14.3;;;;;;;;;;;;;
2022/04/02 03:40:15;;;;;;;14.5;12.4;;;;;;;;;;;;;
2022/04/02 03:42:39;;;;;;;16;13.7;;;;;;;;;;;;;
2022/04/02 03:45:05;;;;;;;16.1;13.5;;;;;;;;;;;;;
2022/04/02 03:47:31;;;;;;;16.7;13.6;;;;;;;;;;;;;
2022/04/02 03:50:05;;;;;;;15.3;13.5;;;;;;;;;;;;;
2022/04/02 03:52:21;;;;;;;16.9;14;;;;;;;;;;;;;
2022/04/02 03:54:46;;;;;;;16.7;13.5;;;;;;;;;;;;;
2022/04/02 03:57:12;;;;;;;16.9;14;;;;;;;;;;;;;
2022/04/02 03:59:37;;;;;;;15.6;13.6;;;;;;;;;;;;;
2022/04/02 04:02:37;;;;;;;15.9;13.3;;;;;;;1.33;90.25781;921.7939;;;;
2022/04/02 04:05:01;;;;;;;15.3;13.7;;;;;;;1.36;89.96191;921.8915;;;;
2022/04/02 04:07:28;;;;;;;16.2;14.1;;;;;;;1.33;90.01172;921.8973;;;;
2022/04/02 04:09:54;;;;;;;16.7;13.7;;;;;;;1.27;89.60742;921.9222;;;;
2022/04/02 04:12:20;;;;;;;16.8;13.8;;;;;;;1.36;89.81641;921.912;;;;
2022/04/02 04:14:44;;;;;;;15.8;13.5;;;;;;;1.38;89.80859;921.9523;;;;
2022/04/02 04:17:11;;;;;;;16.1;13.7;;;;;;;1.01;90.50293;921.9472;;;;
2022/04/02 04:19:35;;;;;;;16.8;14.5;;;;;;;1.05;90.79004;921.9863;;;;
2022/04/02 04:22:02;;;;;;;16.9;14.5;;;;;;;1.08;90.96289;921.968;;;;
2022/04/02 04:24:26;;;;;;;16.7;14.2;;;;;;;1.12;90.89453;921.9546;;;;
2022/04/02 04:26:54;;;;;;;16.9;14.3;;;;;;;0.91;90.92578;921.9387;;;;
2022/04/02 04:29:19;;;;;;;17.6;14.3;;;;;;;0.85;92.32031;921.9526;;;;
2022/04/02 04:31:44;;;;;;;18.2;14.6;;;;;;;1.06;91.81934;922.003;;;;
2022/04/02 04:34:31;;;;;;;18.4;15.1;;;;;;;1.06;91.21582;921.9973;;;;
2022/04/02 04:37:06;;;;;;;17.4;14.6;;;;;;;1.13;90.83887;922.0542;;;;
2022/04/02 04:39:34;;;;;;;17.8;14.6;;;;;;;1.08;90.44922;922.1003;;;;
2022/04/02 04:42:00;;;;;;;18;15;;;;;;;0.95;90.84668;922.0884;;;;
2022/04/02 04:44:28;;;;;;;16.8;14.5;;;;;;;0.97;91.54102;922.1051;;;;
2022/04/02 04:46:53;;;;;;;21;16.4;;;;;;;0.79;91.73535;922.0614;;;;
2022/04/02 04:49:21;;;;;;;19.6;16.3;;;;;;;0.82;92.20313;922.1072;;;;
2022/04/02 04:51:46;;;;;;;18;15.1;;;;;;;1.06;91.48438;922.1761;;;;
2022/04/02 04:54:13;;;;;;;44.8;29.9;;;;;;;1.05;91.41504;922.183;;;;
2022/04/02 04:56:38;;;;;;;23;18.3;;;;;;;1.18;91.03125;922.1328;;;;
2022/04/02 04:59:05;;;;;;;20.5;17.4;;;;;;;1.21;90.16309;922.2488;;;;
2022/04/02 05:01:30;;;;;;;18.9;15.4;;;;;;;1.08;90.33789;922.258;;;;
2022/04/02 05:03:59;;;;;;;17.2;14.1;;;;;;;1.09;90.29492;922.2935;;;;
2022/04/02 05:06:23;;;;;;;17.1;14.8;;;;;;;1.13;90.2041;922.2793;;;;
2022/04/02 05:08:49;;;;;;;17.3;14.7;;;;;;;1.23;89.83398;922.395;;;;
2022/04/02 05:11:14;;;;;;;17.3;14.4;;;;;;;1.3;89.19922;922.4103;;;;
2022/04/02 05:13:39;;;;;;;17.6;14.9;;;;;;;1.23;89.29785;922.4083;;;;
2022/04/02 05:16:04;;;;;;;22.6;18.1;;;;;;;1.33;89.4082;922.461;;;;
2022/04/02 05:18:29;;;;;;;24.2;18.7;;;;;;;1.07;89.66504;922.4074;;;;
2022/04/02 05:20:58;;;;;;;20;16.6;;;;;;;0.89;90.4668;922.4453;;;;
2022/04/02 05:23:22;;;;;;;18.7;16.2;;;;;;;0.91;90.83887;922.4301;;;;
2022/04/02 05:25:49;;;;;;;19.2;15.9;;;;;;;0.95;91.56055;922.5122;;;;
2022/04/02 05:28:14;;;;;;;18.7;16;;;;;;;1.16;90.72363;922.5275;;;;
2022/04/02 05:30:40;;;;;;;18.2;15.3;;;;;;;1.19;89.91602;922.5139;;;;
2022/04/02 05:33:05;;;;;;;18.1;15.5;;;;;;;1.34;89.49902;922.4871;;;;
2022/04/02 05:35:31;;;;;;;17.3;14.5;;;;;;;1.26;89.21387;922.4982;;;;
2022/04/02 05:38:08;;;;;;;17.5;14.9;;;;;;;1.42;89.0791;922.5397;;;;
2022/04/02 05:40:33;;;;;;;16.5;13.8;;;;;;;1.53;88.2207;922.5574;;;;
2022/04/02 05:42:59;;;;;;;16.9;14.5;;;;;;;1.6;87.86426;922.5365;;;;
2022/04/02 05:45:24;;;;;;;15.6;13.7;;;;;;;1.28;88.22559;922.6406;;;;
2022/04/02 05:47:49;;;;;;;18.3;16.3;;;;;;;1.13;89.80176;922.6459;;;;
2022/04/02 05:50:14;;;;;;;17;14.4;;;;;;;1.49;88.93945;922.6791;;;;
2022/04/02 05:52:41;;;;;;;16.4;14.3;;;;;;;1.22;89.35156;922.6942;;;;
2022/04/02 05:55:06;;;;;;;17.1;14.3;;;;;;;1.47;89.03418;922.7303;;;;
2022/04/02 05:57:32;;;;;;;15.7;14;;;;;;;1.38;89.01563;922.7614;;;;
2022/04/02 05:59:57;;;;;;;16.4;13.8;;;;;;;1.51;88.46289;922.8127;;;;
2022/04/02 06:02:56;;;;;;;16.5;14.4;;;;;;;1.49;88.38086;922.7692;;;;
2022/04/02 06:05:24;;;;;;;15;13.1;;;;;;;1.74;87.91895;922.8005;;;;
2022/04/02 06:07:49;;;;;;;15;13.4;;;;;;;1.41;87.89453;922.8125;;;;
2022/04/02 06:10:14;;;;;;;15.7;13.5;;;;;;;1.71;87.47461;922.8391;;;;
2022/04/02 06:12:39;;;;;;;16.5;14;;;;;;;1.77;88.24902;922.8583;;;;
2022/04/02 06:15:04;;;;;;;16.1;13.9;;;;;;;1.85;87.12305;922.8803;;;;
2022/04/02 06:17:46;;;;;;;14.9;13;;;;;;;2.07;86.49707;922.8928;;;;
2022/04/02 06:20:15;;;;;;;14.4;12.5;;;;;;;2.08;86.01563;922.8575;;;;
2022/04/02 06:22:40;;;;;;;14.6;12.8;;;;;;;2.12;85.37598;922.9484;;;;
2022/04/02 06:25:06;;;;;;;13.1;11.7;;;;;;;2.21;84.67773;922.9377;;;;
2022/04/02 06:27:32;;;;;;;13.9;12;;;;;;;2.32;84.54395;922.9667;;;;
2022/04/02 06:29:57;;;;;;;13.8;12.3;;;;;;;2.34;84.15527;923.0056;;;;
2022/04/02 06:32:22;;;;;;;13.4;12;;;;;;;2.36;83.74414;923.0106;;;;
2022/04/02 06:34:50;;;;;;;14.5;12.1;;;;;;;2.15;83.91602;923.0432;;;;
2022/04/02 06:37:15;;;;;;;13.5;11.8;;;;;;;2.4;84.22266;923.0566;;;;
2022/04/02 06:39:41;;;;;;;12.5;11.2;;;;;;;2.25;82.89453;923.1432;;;;
2022/04/02 06:42:06;;;;;;;12.6;11.1;;;;;;;2.07;84.7041;923.1635;;;;
2022/04/02 06:44:32;;;;;;;13.5;11.2;;;;;;;2.22;83.72754;923.1913;;;;
2022/04/02 06:46:57;;;;;;;11.8;10.6;;;;;;;2.44;83.29004;923.1974;;;;
2022/04/02 06:49:22;;;;;;;11.7;10.5;;;;;;;2.61;82.35938;923.0784;;;;
2022/04/02 06:51:47;;;;;;;11.4;10.2;;;;;;;2.7;81.92676;923.2572;;;;
2022/04/02 06:54:14;;;;;;;11.1;9.9;;;;;;;2.81;81.21875;923.2425;;;;
2022/04/02 06:56:39;;;;;;;11.6;10.1;;;;;;;2.85;81.21875;923.1276;;;;
2022/04/02 06:59:06;;;;;;;11.3;10.1;;;;;;;2.98;80.82715;923.2008;;;;
2022/04/02 07:01:30;;;;;;;11;9.8;;;;;;;2.93;80.61328;923.2338;;;;
2022/04/02 07:03:57;;;;;;;11.9;10.1;;;;;;;3.06;80.31348;923.2562;;;;
2022/04/02 07:06:22;;;;;;;11.2;10;;;;;;;3.02;79.65625;923.2534;;;;
2022/04/02 07:08:48;;;;;;;11.2;10;;;;;;;2.99;80.03125;923.2818;;;;
2022/04/02 07:11:13;;;;;;;11.4;10.2;;;;;;;2.96;79.57715;923.2949;;;;
2022/04/02 07:13:39;;;;;;;10.8;9.7;;;;;;;2.89;79.24023;923.2727;;;;
2022/04/02 07:16:04;;;;;;;10.7;9.6;;;;;;;2.95;79.70996;923.3859;;;;
2022/04/02 07:18:30;;;;;;;11.8;10.3;;;;;;;2.94;80.12305;923.3928;;;;
2022/04/02 07:20:55;;;;;;;10.8;9.7;;;;;;;3.07;79.55273;923.3586;;;;
2022/04/02 07:23:21;;;;;;;10.6;9.5;;;;;;;3.12;78.88965;923.4207;;;;
2022/04/02 07:25:48;;;;;;;10.4;9.3;;;;;;;3.26;78.69141;923.4644;;;;
2022/04/02 07:28:14;;;;;;;10.3;9.2;;;;;;;3.4;77.9082;923.5525;;;;
2022/04/02 07:30:38;;;;;;;12.1;10.5;;;;;;;3.49;78.62109;923.6255;;;;
2022/04/02 07:33:05;;;;;;;11.4;10.2;;;;;;;3.19;79.01465;923.6111;;;;
2022/04/02 07:35:30;;;;;;;12;10.8;;;;;;;3.18;80.60547;923.5975;;;;
2022/04/02 07:37:56;;;;;;;11.4;9.6;;;;;;;3.42;80.31641;923.6507;;;;
2022/04/02 07:40:21;;;;;;;9;8.1;;;;;;;3.52;79.87305;923.6376;;;;
2022/04/02 07:42:46;;;;;;;9.2;8.3;;;;;;;3.41;76.40527;923.6844;;;;
2022/04/02 07:45:15;;;;;;;9.5;8.6;;;;;;;3.34;77.41504;923.7037;;;;
2022/04/02 07:47:39;;;;;;;9.6;8.5;;;;;;;3.48;76.44043;923.6019;;;;
2022/04/02 07:50:05;;;;;;;8.8;7.9;;;;;;;3.52;76.38086;923.6849;;;;
2022/04/02 07:52:30;;;;;;;9.1;8.2;;;;;;;3.54;75.51758;923.6733;;;;
2022/04/02 07:54:55;;;;;;;9.2;8.3;;;;;;;3.6;76.40527;923.6881;;;;
2022/04/02 07:57:20;;;;;;;9.1;8;;;;;;;3.44;77.0498;923.7004;;;;
2022/04/02 07:59:47;;;;;;;9.2;8.2;;;;;;;3.47;77.82031;923.7889;;;;
2022/04/02 08:02:36;;;;;;;8.5;7.6;;;;;;;3.53;77.90918;923.7739;;;;
2022/04/02 08:04:36;;;;;;;8.3;7.3;;;;;;;3.51;77.81543;923.8225;;;;
2022/04/02 08:07:01;;;;;;;9.2;7.5;;;;;;;3.56;77.52051;923.9041;;;;
2022/04/02 08:09:26;;;;;;;8.6;7.6;;;;;;;3.63;78.07324;923.895;;;;
2022/04/02 08:11:51;;;;;;;8.3;7.4;;;;;;;3.74;78.08301;923.9309;;;;
2022/04/02 08:14:18;;;;;;;8.7;7.8;;;;;;;3.87;77.51074;923.9398;;;;
2022/04/02 08:16:44;;;;;;;8.9;7.9;;;;;;;3.55;78.12695;923.9984;;;;
2022/04/02 08:19:07;;;;;;;9;8.1;;;;;;;3.62;78.16113;924.0609;;;;
2022/04/02 08:21:33;;;;;;;9.6;8.6;;;;;;;3.8;77.87988;924.0654;;;;
2022/04/02 08:23:58;;;;;;;9.9;8.5;;;;;;;3.79;78.11621;924.1031;;;;
2022/04/02 08:26:23;;;;;;;9.5;8.2;;;;;;;3.85;77.54102;924.1426;;;;
2022/04/02 08:28:48;;;;;;;9.4;8.3;;;;;;;3.77;77.70605;924.1155;;;;
2022/04/02 08:31:13;;;;;;;10.3;9.3;;;;;;;3.92;77.49805;924.1411;;;;
2022/04/02 08:33:38;;;;;;;9.2;8.3;;;;;;;4.06;76.99414;924.2554;;;;
2022/04/02 08:36:03;;;;;;;10.4;9.2;;;;;;;4.03;76.9541;924.2267;;;;
2022/04/02 08:38:29;;;;;;;10.8;9.6;;;;;;;4.01;77.51465;924.2841;;;;
2022/04/02 08:40:54;;;;;;;10.4;9.3;;;;;;;4;76.88184;924.3206;;;;
2022/04/02 08:43:19;;;;;;;10.6;9;;;;;;;4.07;77.01855;924.313;;;;
2022/04/02 08:45:48;;;;;;;10.3;9.2;;;;;;;3.91;77.2832;924.37;;;;
2022/04/02 08:48:13;;;;;;;9.4;8.4;;;;;;;4.15;77.20215;924.3895;;;;
2022/04/02 08:50:39;;;;;;;9.3;8.1;;;;;;;3.86;78.08301;924.3947;;;;
2022/04/02 08:53:04;;;;;;;7.7;6.7;;;;;;;4.13;76.71484;924.4327;;;;
2022/04/02 08:55:34;;;;;;;6.9;6.2;;;;;;;4.13;77.54688;924.4058;;;;
2022/04/02 08:57:58;;;;;;;7.3;6.6;;;;;;;4.1;79.1377;924.4448;;;;
2022/04/02 09:00:48;;;;;;;7;6.3;;;;;;;4.24;77.25195;924.4893;;;;
2022/04/02 09:03:13;;;;;;;6.5;5.9;;;;;;;4.47;76.37109;924.5248;;;;
2022/04/02 09:05:38;;;;;;;5.8;5.2;;;;;;;4.2;77.76172;924.5405;;;;
2022/04/02 09:08:04;;;;;;;6;5.4;;;;;;;3.81;78.83691;924.5988;;;;
2022/04/02 09:10:29;;;;;;;6.1;5.5;;;;;;;3.75;78.37891;924.6002;;;;
2022/04/02 09:12:54;;;;;;;6;5.4;;;;;;;4.24;78.48926;924.6412;;;;
2022/04/02 09:15:19;;;;;;;5.3;4.8;;;;;;;4.49;77.35254;924.5842;;;;
2022/04/02 09:17:44;;;;;;;5.5;5;;;;;;;4.8;75.97852;924.6495;;;;
2022/04/02 09:20:09;;;;;;;5.1;4.6;;;;;;;4.85;74.92969;924.678;;;;
2022/04/02 09:22:36;;;;;;;5.3;4.6;;;;;;;4.54;76.02441;924.6501;;;;
2022/04/02 09:24:59;;;;;;;5.4;4.9;;;;;;;4.95;74.91113;924.678;;;;
2022/04/02 09:27:24;;;;;;;5.4;4.9;;;;;;;4.92;74.69238;924.6959;;;;
2022/04/02 09:29:49;;;;;;;5.3;4.8;;;;;;;5.39;73.88379;924.6408;;;;
2022/04/02 09:32:14;;;;;;;5.2;4.7;;;;;;;5.45;73.05762;924.7068;;;;
2022/04/02 09:34:40;;;;;;;5.8;5.2;;;;;;;5.44;73.31738;924.729;;;;
2022/04/02 09:37:06;;;;;;;6.2;5.6;;;;;;;5.28;73.83301;924.8035;;;;
2022/04/02 09:39:32;;;;;;;6;5.4;;;;;;;5.4;73.86426;924.8279;;;;
2022/04/02 09:41:58;;;;;;;6;5.2;;;;;;;5.23;73.81152;924.8133;;;;
2022/04/02 09:44:22;;;;;;;6;5.4;;;;;;;5.1;74.10449;924.7662;;;;
2022/04/02 09:46:47;;;;;;;6.1;5.5;;;;;;;4.78;76.65039;924.7795;;;;
2022/04/02 09:49:12;;;;;;;5.7;5.1;;;;;;;4.96;75.63574;924.7853;;;;
2022/04/02 09:51:37;;;;;;;5.9;5.3;;;;;;;5.05;75.99023;924.8558;;;;
2022/04/02 09:54:02;;;;;;;5.9;5.3;;;;;;;4.94;74.70703;924.8427;;;;
2022/04/02 09:56:27;;;;;;;5.9;5.3;;;;;;;4.83;74.85742;924.8458;;;;
2022/04/02 09:58:52;;;;;;;5.5;5;;;;;;;4.67;75.60742;924.8778;;;;
2022/04/02 10:01:18;;;;;;;5.6;5.1;;;;;;;4.88;75.48633;924.813;;;;
2022/04/02 10:03:43;;;;;;;5.9;5.1;;;;;;;4.23;78.07129;924.8254;;;;
2022/04/02 10:06:30;;;;;;;6.1;5.5;;;;;;;4.22;78.0459;924.8758;;;;
2022/04/02 10:08:55;;;;;;;5.9;5.3;;;;;;;4.1;77.75586;925.0066;;;;
2022/04/02 10:11:21;;;;;;;5.4;4.9;;;;;;;3.87;78.16113;925.019;;;;
2022/04/02 10:13:46;;;;;;;7.3;5.9;;;;;;;4.12;79.00781;924.965;;;;
2022/04/02 10:16:11;;;;;;;7.2;6;;;;;;;4.25;78.94141;924.9691;;;;
2022/04/02 10:18:38;;;;;;;6.4;5.6;;;;;;;4.56;76.88281;925.0397;;;;
2022/04/02 10:21:03;;;;;;;5.9;5.3;;;;;;;4.84;75.00488;925.1099;;;;
2022/04/02 10:23:28;;;;;;;5.6;4.9;;;;;;;4.56;77.09668;925.1154;;;;
2022/04/02 10:25:53;;;;;;;6.4;5.3;;;;;;;4.44;77.26758;925.1212;;;;
2022/04/02 10:28:19;;;;;;;6.2;5.5;;;;;;;4.54;76.04688;925.2499;;;;
2022/04/02 10:30:44;;;;;;;6.8;6.1;;;;;;;4.31;75.45313;925.247;;;;
2022/04/02 10:33:30;;;;;;;9;6.4;;;;;;;4.39;77.45996;925.2708;;;;
2022/04/02 10:35:34;;;;;;;6.6;6;;;;;;;4.04;77.1377;925.3215;;;;
2022/04/02 10:37:59;;;;;;;7.1;6;;;;;;;4.18;77.44336;925.283;;;;
2022/04/02 10:40:25;;;;;;;6.3;5.6;;;;;;;3.81;77.43359;925.3711;;;;
2022/04/02 10:42:50;;;;;;;6.7;5.9;;;;;;;3.96;78.41602;925.3942;;;;
2022/04/02 10:45:15;;;;;;;6.6;5.9;;;;;;;3.72;79.21484;925.4467;;;;
2022/04/02 10:47:40;;;;;;;6.1;5.4;;;;;;;3.81;78.08398;925.4741;;;;
2022/04/02 10:50:05;;;;;;;6.7;6;;;;;;;3.71;77.69434;925.5;;;;
2022/04/02 10:52:30;;;;;;;6.3;5.7;;;;;;;3.57;78.04102;925.5128;;;;
2022/04/02 10:54:56;;;;;;;7.3;6.6;;;;;;;3.33;79.77148;925.5513;;;;
2022/04/02 10:57:21;;;;;;;7.9;6.7;;;;;;;3.48;80.02344;925.5594;;;;
2022/04/02 10:59:47;;;;;;;8.4;7.5;;;;;;;3.61;79.60938;925.5953;;;;
2022/04/02 11:02:12;;;;;;;9.3;7.7;;;;;;;3.55;79.14746;925.5414;;;;
2022/04/02 11:04:37;;;;;;;8.5;7.6;;;;;;;3.34;78.95215;925.6308;;;;
2022/04/02 11:07:02;;;;;;;8;7.2;;;;;;;3.23;79.08691;925.6573;;;;
2022/04/02 11:09:28;;;;;;;7.7;6.9;;;;;;;3.38;78.375;925.6778;;;;
2022/04/02 11:11:53;;;;;;;7.3;6.4;;;;;;;3.46;78.52637;925.7361;;;;
2022/04/02 11:14:20;;;;;;;7.2;6.5;;;;;;;3.33;77.50195;925.7432;;;;
2022/04/02 11:16:46;;;;;;;7.5;6.8;;;;;;;3.37;79.20605;925.8076;;;;
2022/04/02 11:21:40;;;;;;;7.9;6.8;;;;;;;3.59;78.96387;925.8427;;;;
2022/04/02 11:24:08;;;;;;;7.2;6.5;;;;;;;3.65;78.71875;925.8683;;;;
2022/04/02 11:26:33;;;;;;;7;6.3;;;;;;;3.68;77.9375;925.9356;;;;
2022/04/02 11:28:58;;;;;;;7.5;6.4;;;;;;;3.68;77.53223;925.9199;;;;
2022/04/02 11:31:24;;;;;;;7.9;7.1;;;;;;;3.64;78.87402;925.8965;;;;
2022/04/02 11:33:49;;;;;;;8;7.2;;;;;;;3.71;78.52637;925.8959;;;;
2022/04/02 11:36:14;;;;;;;8.7;7.8;;;;;;;3.55;78.58789;925.983;;;;
2022/04/02 11:38:39;;;;;;;9;7.6;;;;;;;3.37;79.2959;926.0059;;;;
2022/04/02 11:41:04;;;;;;;10.1;8;;;;;;;3.33;80.55566;925.9769;;;;
2022/04/02 11:43:29;;;;;;;8.6;7.7;;;;;;;3.22;80.90625;926.0364;;;;
2022/04/02 11:45:54;;;;;;;8.8;7.9;;;;;;;3.16;80.82813;926.0831;;;;
2022/04/02 11:48:19;;;;;;;8.6;7.7;;;;;;;3.12;80.05664;926.0817;;;;
2022/04/02 11:50:45;;;;;;;8.3;7.5;;;;;;;2.93;79.53711;926.1094;;;;
2022/04/02 11:53:10;;;;;;;9;7.8;;;;;;;2.95;80.22559;926.1774;;;;
2022/04/02 11:55:37;;;;;;;8.7;7.6;;;;;;;3.02;79.7793;926.1735;;;;
2022/04/02 11:58:02;;;;;;;9.6;8.4;;;;;;;2.99;80.24414;926.1167;;;;
2022/04/02 12:00:27;;;;;;;9.1;8.2;;;;;;;2.93;79.32324;926.1454;;;;
2022/04/02 12:02:52;;;;;;;8.9;8;;;;;;;3.05;79.69531;926.2101;;;;
2022/04/02 12:05:17;;;;;;;8.8;7.9;;;;;;;2.83;80.4043;926.2623;;;;
2022/04/02 12:07:42;;;;;;;9.3;8.3;;;;;;;2.89;80.36133;926.2659;;;;
2022/04/02 12:10:07;;;;;;;9.1;8.2;;;;;;;2.8;79.29004;926.2789;;;;
2022/04/02 12:12:35;;;;;;;10.3;9;;;;;;;2.86;80.06348;926.2433;;;;
2022/04/02 12:15:00;;;;;;;10.1;9;;;;;;;2.88;80.33789;926.3467;;;;
2022/04/02 12:17:25;;;;;;;10.4;9.3;;;;;;;2.84;79.80176;926.3365;;;;
2022/04/02 12:19:50;;;;;;;10.3;8.8;;;;;;;2.84;79.96973;926.4348;;;;
2022/04/02 12:22:15;;;;;;;11.6;9.2;;;;;;;2.82;80.03418;926.4274;;;;
2022/04/02 12:24:41;;;;;;;11.2;9.7;;;;;;;2.82;80.34766;926.4501;;;;
2022/04/02 12:27:06;;;;;;;11;9;;;;;;;2.98;79.60449;926.4468;;;;
2022/04/02 12:29:32;;;;;;;11.7;10;;;;;;;2.94;80.37012;926.5058;;;;
2022/04/02 12:32:10;;;;;;;11.5;10.1;;;;;;;2.93;80.1875;926.4018;;;;
2022/04/02 12:34:35;;;;;;;11.3;9.6;;;;;;;2.72;80.13672;926.5485;;;;
2022/04/02 12:37:00;;;;;;;12.9;10;;;;;;;2.74;80.48926;926.582;;;;
2022/04/02 12:39:25;;;;;;;10.2;9.1;;;;;;;2.67;80.51855;926.6072;;;;
2022/04/02 12:41:51;;;;;;;12.9;10;;;;;;;2.73;80.79102;926.6699;;;;
2022/04/02 12:44:16;;;;;;;10.8;9.6;;;;;;;2.69;80.05371;926.6642;;;;
2022/04/02 12:46:42;;;;;;;11.1;9.9;;;;;;;2.49;80.93457;926.7534;;;;
2022/04/02 12:49:07;;;;;;;11.6;10.2;;;;;;;2.32;81.63184;926.7866;;;;
2022/04/02 12:51:32;;;;;;;12.2;10.5;;;;;;;2.32;81.89844;926.8256;;;;
2022/04/02 12:53:58;;;;;;;11.8;10.5;;;;;;;2.35;82.32031;926.722;;;;
2022/04/02 12:56:23;;;;;;;12.9;10.3;;;;;;;2.25;81.71875;926.8259;;;;
2022/04/02 12:59:17;;;;;;;12.8;10.3;;;;;;;2.21;82.05859;926.8314;;;;
2022/04/02 13:01:42;;;;;;;13.2;10.7;;;;;;;2.25;82.69336;926.9225;;;;
2022/04/02 13:04:08;;;;;;;13.1;10.3;;;;;;;2.29;82.27637;926.8755;;;;
2022/04/02 13:06:34;;;;;;;12.7;10.4;;;;;;;2.26;82.28027;926.9981;;;;
2022/04/02 13:09:01;;;;;;;11.5;9.9;;;;;;;2.32;82.04395;927.0173;;;;
2022/04/02 13:11:25;;;;;;;12.9;10.1;;;;;;;2.2;81.99023;927.0683;;;;
2022/04/02 13:13:51;;;;;;;14.9;11.1;;;;;;;2.2;82.23633;927.0828;;;;
2022/04/02 13:16:17;;;;;;;13.1;10.8;;;;;;;2.22;82.6875;927.0789;;;;
2022/04/02 13:21:07;;;;;;;14.2;11.7;;;;;;;1.9;83.7207;927.0892;;;;
2022/04/02 13:23:32;;;;;;;16.3;11.7;;;;;;;1.8;83.94727;927.1245;;;;
2022/04/02 13:25:57;;;;;;;13.8;11.9;;;;;;;1.87;83.72656;927.1934;;;;
2022/04/02 13:29:25;;;;;;;14.9;12.1;;;;;;;1.75;85.05469;927.2155;;;;
2022/04/02 13:31:52;;;;;;;14.2;12.3;;;;;;;1.7;84.49805;927.1618;;;;
2022/04/02 13:34:21;;;;;;;16.6;12.6;;;;;;;1.65;84.43164;927.2656;;;;
2022/04/02 13:36:44;;;;;;;15.4;12.4;;;;;;;1.65;84.75586;927.2413;;;;
2022/04/02 13:39:11;;;;;;;17.7;13.8;;;;;;;1.61;86.53613;927.1941;;;;
2022/04/02 13:41:57;;;;;;;17;14;;;;;;;1.67;86.29102;927.2787;;;;
2022/04/02 13:44:23;;;;;;;16.5;13.7;;;;;;;1.83;85.38477;927.2805;;;;
2022/04/02 13:46:47;;;;;;;15.8;12.5;;;;;;;1.82;84.95801;927.2803;;;;
2022/04/02 13:49:13;;;;;;;13.7;12.1;;;;;;;1.78;85.0625;927.3427;;;;
2022/04/02 13:51:38;;;;;;;14.5;12.4;;;;;;;1.74;85.42383;927.3283;;;;
2022/04/02 13:54:03;;;;;;;14.5;12.1;;;;;;;1.74;85.36621;927.3502;;;;
2022/04/02 13:56:28;;;;;;;12.5;10.4;;;;;;;1.67;84.9834;927.3948;;;;
2022/04/02 13:58:53;;;;;;;13.4;11.6;;;;;;;1.61;86.16699;927.4465;;;;
2022/04/02 14:01:18;;;;;;;13.2;11.1;;;;;;;1.65;85.90723;927.4916;;;;
2022/04/02 14:03:45;;;;;;;13.1;11.4;;;;;;;1.64;85.50293;927.5125;;;;
2022/04/02 14:06:10;;;;;;;13.3;11.2;;;;;;;1.64;85.80469;927.5056;;;;
2022/04/02 14:08:35;;;;;;;12;10.7;;;;;;;1.56;86.0918;927.5025;;;;
2022/04/02 14:11:00;;;;;;;12.8;10.9;;;;;;;1.58;85.61523;927.5413;;;;
2022/04/02 14:13:27;;;;;;;12.5;10.5;;;;;;;1.48;85.94141;927.5656;;;;
2022/04/02 14:15:52;;;;;;;11.3;10.1;;;;;;;1.47;85.91602;927.4908;;;;
2022/04/02 14:18:17;;;;;;;11;9.8;;;;;;;1.43;86.24316;927.5453;;;;
2022/04/02 14:20:42;;;;;;;10.8;9.3;;;;;;;1.57;85.91309;927.5906;;;;
2022/04/02 14:23:07;;;;;;;11.8;10.3;;;;;;;1.44;86.37988;927.6365;;;;
2022/04/02 14:25:32;;;;;;;11.8;10.1;;;;;;;1.35;86.32715;927.7202;;;;
2022/04/02 14:28:19;;;;;;;12;10.7;;;;;;;1.36;86.7207;927.6891;;;;
2022/04/02 14:30:46;;;;;;;11.6;10.4;;;;;;;1.28;86.48242;927.7584;;;;
2022/04/02 14:33:16;;;;;;;14;10.9;;;;;;;1.35;86.70801;927.7391;;;;
2022/04/02 14:35:38;;;;;;;10.9;9.8;;;;;;;1.4;86.59375;927.7811;;;;
2022/04/02 14:38:03;;;;;;;11.9;10.6;;;;;;;1.43;86.22168;927.7941;;;;
2022/04/02 14:40:28;;;;;;;11.7;10.4;;;;;;;1.55;86.22266;927.8535;;;;
2022/04/02 14:42:54;;;;;;;13.6;10.7;;;;;;;1.62;86.03613;927.8903;;;;
2022/04/02 14:45:19;;;;;;;11;9.8;;;;;;;1.63;85.22363;927.8748;;;;
2022/04/02 14:47:44;;;;;;;10.7;9.6;;;;;;;1.73;84.85059;927.9486;;;;
2022/04/02 14:50:09;;;;;;;11.4;10.2;;;;;;;1.85;84.59375;927.8977;;;;
2022/04/02 14:52:37;;;;;;;11;9.8;;;;;;;1.79;83.61035;927.9275;;;;
2022/04/02 14:55:03;;;;;;;11.1;9.8;;;;;;;1.61;84.66113;928.0399;;;;
2022/04/02 14:57:28;;;;;;;13.1;11.4;;;;;;;1.8;86.00586;928.0394;;;;
2022/04/02 15:03:50;;;;;;;12.1;10.5;;;;;;;1.64;85.04492;928.082;;;;
2022/04/02 15:06:15;;;;;;;11.9;10.6;;;;;;;1.51;85.65625;928.1459;;;;
2022/04/02 15:09:58;;;;;;;13.8;11.3;;;;;;;1.5;85.61914;928.1103;;;;
2022/04/02 15:12:24;;;;;;;12.4;11;;;;;;;1.59;86.00879;928.1833;;;;
2022/04/02 15:14:48;;;;;;;12.1;10.3;;;;;;;1.52;85.57813;928.2206;;;;
2022/04/02 15:17:13;;;;;;;11.9;10.7;;;;;;;1.55;85.08203;928.2473;;;;
2022/04/02 15:19:39;;;;;;;11.9;10.7;;;;;;;1.38;86.60156;928.3358;;;;
2022/04/02 15:22:04;;;;;;;13.1;11.2;;;;;;;1.56;86.51758;928.3095;;;;
2022/04/02 15:24:29;;;;;;;12.3;11;;;;;;;1.58;86.00684;928.358;;;;
2022/04/02 15:26:54;;;;;;;13.3;11;;;;;;;1.7;85.59277;928.45;;;;
2022/04/02 15:29:19;;;;;;;12.2;10.9;;;;;;;1.57;84.61621;928.4534;;;;
2022/04/02 15:31:45;;;;;;;13.3;11.6;;;;;;;1.55;85.51855;928.4913;;;;
2022/04/02 15:34:10;;;;;;;13.2;11.2;;;;;;;1.57;85.35449;928.462;;;;
2022/04/02 15:36:37;;;;;;;12.3;10.4;;;;;;;1.34;85.46484;928.5787;;;;
2022/04/02 15:39:03;;;;;;;12;10.7;;;;;;;1.28;86.00195;928.6326;;;;